createdAt,value
2022-07-26T00:01:07.998Z,18.04
2022-07-26T00:06:21.117Z,18.01
2022-07-26T00:08:50.527Z,18.02
2022-07-26T00:11:18.634Z,17.97
2022-07-26T00:13:47.030Z,17.99
2022-07-26T00:16:14.931Z,17.96
2022-07-26T00:18:42.897Z,17.91
2022-07-26T00:21:11.792Z,17.95
2022-07-26T00:23:39.663Z,17.92
2022-07-26T00:26:09.028Z,17.88
2022-07-26T00:28:36.799Z,17.89
2022-07-26T00:31:04.700Z,17.89
2022-07-26T00:33:32.450Z,17.89
2022-07-26T00:36:00.471Z,17.84
2022-07-26T00:38:28.196Z,17.79
2022-07-26T00:40:56.022Z,17.87
2022-07-26T00:43:25.116Z,17.87
2022-07-26T00:45:52.903Z,17.92
2022-07-26T00:48:20.685Z,18.01
2022-07-26T00:50:48.505Z,17.88
2022-07-26T00:53:16.266Z,17.74
2022-07-26T00:55:44.051Z,17.79
2022-07-26T00:58:13.475Z,17.82
2022-07-26T01:00:42.662Z,17.59
2022-07-26T01:03:11.132Z,17.43
2022-07-26T01:05:38.953Z,17.34
2022-07-26T01:08:06.655Z,17.37
2022-07-26T01:10:34.675Z,17.33
2022-07-26T01:13:02.379Z,17.29
2022-07-26T01:15:30.141Z,17.28
2022-07-26T01:17:59.245Z,17.33
2022-07-26T01:20:27.040Z,17.29
2022-07-26T01:22:56.135Z,17.35
2022-07-26T01:25:30.616Z,17.30
2022-07-26T01:27:58.539Z,17.32
2022-07-26T01:30:26.232Z,17.30
2022-07-26T01:32:53.973Z,17.26
2022-07-26T01:35:22.258Z,17.34
2022-07-26T01:37:50.169Z,17.43
2022-07-26T01:40:19.260Z,17.49
2022-07-26T01:42:47.092Z,17.49
2022-07-26T01:45:14.913Z,17.50
2022-07-26T01:47:42.602Z,17.57
2022-07-26T01:50:10.976Z,17.61
2022-07-26T01:52:39.333Z,17.63
2022-07-26T01:55:07.268Z,17.63
2022-07-26T01:57:36.434Z,17.60
2022-07-26T02:00:06.031Z,17.59
2022-07-26T02:02:33.914Z,17.58
2022-07-26T02:05:02.003Z,17.58
2022-07-26T02:07:31.603Z,17.56
2022-07-26T02:10:01.076Z,17.51
2022-07-26T02:12:29.688Z,17.43
2022-07-26T02:14:59.017Z,17.46
2022-07-26T02:17:26.882Z,17.40
2022-07-26T02:19:54.543Z,17.41
2022-07-26T02:22:22.201Z,17.37
2022-07-26T02:24:50.390Z,17.31
2022-07-26T02:27:18.740Z,17.30
2022-07-26T02:29:46.619Z,17.24
2022-07-26T02:32:15.759Z,17.12
2022-07-26T02:34:43.446Z,17.09
2022-07-26T02:37:11.494Z,17.06
2022-07-26T02:39:39.205Z,17.02
2022-07-26T02:42:06.989Z,16.96
2022-07-26T02:44:35.710Z,17.01
2022-07-26T02:47:03.664Z,17.03
2022-07-26T02:49:32.768Z,17.07
2022-07-26T02:52:00.487Z,17.14
2022-07-26T02:54:28.206Z,17.27
2022-07-26T02:56:55.918Z,17.36
2022-07-26T02:59:23.584Z,17.39
2022-07-26T03:01:51.406Z,17.43
2022-07-26T03:04:19.158Z,17.41
2022-07-26T03:06:48.250Z,17.35
2022-07-26T03:09:15.957Z,17.32
2022-07-26T03:11:43.709Z,17.26
2022-07-26T03:14:11.789Z,17.20
2022-07-26T03:16:39.863Z,17.11
2022-07-26T03:19:07.647Z,17.20
2022-07-26T03:21:35.355Z,17.29
2022-07-26T03:24:04.647Z,17.35
2022-07-26T03:26:32.530Z,17.40
2022-07-26T03:29:00.243Z,17.42
2022-07-26T03:31:28.089Z,17.47
2022-07-26T03:33:59.805Z,17.46
2022-07-26T03:36:30.721Z,17.46
2022-07-26T03:38:58.530Z,17.52
2022-07-26T03:41:27.621Z,17.42
2022-07-26T03:43:55.345Z,17.37
2022-07-26T03:46:23.079Z,17.37
2022-07-26T03:48:50.879Z,17.51
2022-07-26T03:51:18.608Z,17.65
2022-07-26T03:53:46.393Z,17.70
2022-07-26T03:56:31.804Z,17.73
2022-07-26T03:59:02.914Z,17.86
2022-07-26T04:01:30.997Z,17.96
2022-07-26T04:03:58.742Z,17.84
2022-07-26T04:06:27.111Z,17.73
2022-07-26T04:08:54.849Z,17.75
2022-07-26T04:11:22.738Z,17.80
2022-07-26T04:13:56.080Z,17.95
2022-07-26T04:16:25.243Z,18.04
2022-07-26T04:18:53.191Z,18.20
2022-07-26T04:21:21.259Z,18.19
2022-07-26T04:23:51.295Z,18.24
2022-07-26T04:26:20.068Z,18.30
2022-07-26T04:28:48.020Z,18.21
2022-07-26T04:31:15.969Z,18.17
2022-07-26T04:33:45.222Z,18.10
2022-07-26T04:36:12.922Z,18.20
2022-07-26T04:38:40.625Z,18.31
2022-07-26T04:41:08.666Z,18.41
2022-07-26T04:43:36.366Z,18.59
2022-07-26T04:46:04.157Z,18.68
2022-07-26T04:48:31.978Z,18.82
2022-07-26T04:51:01.724Z,18.84
2022-07-26T04:53:29.476Z,18.87
2022-07-26T04:55:57.190Z,18.95
2022-07-26T04:58:24.912Z,18.94
2022-07-26T05:01:10.370Z,19.03
2022-07-26T05:03:38.871Z,19.17
2022-07-26T05:06:08.540Z,19.24
2022-07-26T05:08:36.269Z,19.45
2022-07-26T05:11:04.215Z,19.55
2022-07-26T05:13:31.984Z,19.67
2022-07-26T05:16:00.374Z,19.62
2022-07-26T05:18:31.637Z,19.68
2022-07-26T05:21:04.642Z,19.71
2022-07-26T05:23:33.757Z,19.90
2022-07-26T05:26:01.567Z,19.94
2022-07-26T05:28:29.312Z,20.07
2022-07-26T05:30:57.182Z,20.12
2022-07-26T05:33:24.956Z,20.22
2022-07-26T05:35:52.694Z,20.34
2022-07-26T05:38:20.752Z,20.40
2022-07-26T05:40:50.882Z,20.48
2022-07-26T05:43:19.164Z,20.62
2022-07-26T05:45:46.959Z,20.77
2022-07-26T05:48:14.752Z,20.99
2022-07-26T05:50:42.457Z,21.10
2022-07-26T05:53:10.304Z,21.21
2022-07-26T05:55:37.993Z,21.39
2022-07-26T05:58:07.107Z,21.37
2022-07-26T06:00:35.017Z,21.42
2022-07-26T06:03:21.988Z,21.58
2022-07-26T06:05:50.676Z,21.70
2022-07-26T06:08:19.481Z,21.84
2022-07-26T06:10:47.837Z,21.95
2022-07-26T06:13:17.346Z,22.16
2022-07-26T06:15:45.129Z,22.26
2022-07-26T06:18:13.283Z,22.27
2022-07-26T06:20:41.505Z,22.32
2022-07-26T06:23:09.273Z,22.38
2022-07-26T06:25:37.153Z,22.34
2022-07-26T06:28:04.956Z,22.32
2022-07-26T06:30:33.972Z,22.35
2022-07-26T06:33:02.204Z,22.43
2022-07-26T06:35:31.937Z,22.37
2022-07-26T06:38:00.285Z,22.38
2022-07-26T06:40:28.365Z,22.45
2022-07-26T06:42:58.042Z,22.53
2022-07-26T06:45:29.605Z,22.48
2022-07-26T06:47:58.665Z,22.60
2022-07-26T06:50:26.338Z,22.57
2022-07-26T06:52:54.168Z,22.51
2022-07-26T06:55:22.158Z,22.65
2022-07-26T06:57:50.663Z,22.71
2022-07-26T07:00:20.529Z,22.72
2022-07-26T07:02:48.786Z,22.70
2022-07-26T07:05:17.898Z,22.75
2022-07-26T07:07:45.693Z,22.86
2022-07-26T07:10:14.102Z,22.98
2022-07-26T07:12:43.608Z,22.92
2022-07-26T07:15:14.061Z,23.03
2022-07-26T07:17:41.821Z,23.22
2022-07-26T07:20:10.341Z,23.20
2022-07-26T07:22:39.547Z,23.27
2022-07-26T07:25:07.740Z,23.36
2022-07-26T07:27:36.254Z,23.37
2022-07-26T07:30:06.998Z,23.40
2022-07-26T07:32:35.397Z,23.53
2022-07-26T07:35:03.172Z,23.63
2022-07-26T07:37:53.571Z,23.75
2022-07-26T07:40:20.141Z,23.83
2022-07-26T07:42:48.190Z,24.00
2022-07-26T07:45:15.971Z,24.18
2022-07-26T07:47:43.815Z,24.40
2022-07-26T07:50:14.152Z,24.55
2022-07-26T07:52:41.957Z,24.61
2022-07-26T07:57:59.757Z,24.84
2022-07-26T08:00:27.880Z,24.92
2022-07-26T08:02:55.945Z,25.02
2022-07-26T08:05:24.168Z,25.17
2022-07-26T08:07:52.745Z,25.38
2022-07-26T08:10:20.618Z,25.48
2022-07-26T08:12:51.306Z,25.59
2022-07-26T08:15:21.922Z,25.69
2022-07-26T08:17:53.927Z,25.85
2022-07-26T08:20:22.953Z,25.88
2022-07-26T08:22:53.369Z,25.89
2022-07-26T08:25:21.267Z,25.98
2022-07-26T08:28:03.247Z,26.04
2022-07-26T08:30:34.714Z,26.29
2022-07-26T08:33:02.604Z,26.43
2022-07-26T08:35:30.532Z,26.57
2022-07-26T08:37:58.429Z,26.70
2022-07-26T08:40:26.496Z,26.83
2022-07-26T08:42:55.965Z,26.99
2022-07-26T08:45:24.249Z,27.04
2022-07-26T08:48:16.285Z,27.01
2022-07-26T08:50:43.236Z,27.07
2022-07-26T08:53:12.879Z,27.08
2022-07-26T08:58:28.484Z,26.74
2022-07-26T09:01:08.324Z,26.78
2022-07-26T09:03:38.653Z,26.71
2022-07-26T09:06:14.632Z,26.85
2022-07-26T09:08:42.454Z,26.50
2022-07-26T09:11:30.729Z,26.45
2022-07-26T09:14:00.245Z,26.58
2022-07-26T09:16:28.828Z,26.69
2022-07-26T09:19:16.068Z,26.80
2022-07-26T09:21:43.781Z,26.72
2022-07-26T09:24:11.926Z,26.83
2022-07-26T09:26:39.778Z,26.63
2022-07-26T09:29:09.641Z,26.46
2022-07-26T09:31:38.465Z,26.40
2022-07-26T09:34:08.648Z,26.42
2022-07-26T09:36:51.626Z,26.39
2022-07-26T09:39:33.351Z,26.20
2022-07-26T09:42:26.659Z,25.95
2022-07-26T09:44:56.397Z,26.31
2022-07-26T09:47:24.697Z,26.47
2022-07-26T09:50:15.315Z,26.16
2022-07-26T09:52:58.554Z,26.03
2022-07-26T09:55:26.453Z,25.81
2022-07-26T09:57:54.388Z,26.02
2022-07-26T10:00:22.638Z,26.22
2022-07-26T10:02:50.506Z,26.53
2022-07-26T10:05:21.373Z,26.77
2022-07-26T10:07:49.778Z,26.55
2022-07-26T10:10:21.763Z,26.39
2022-07-26T10:12:52.050Z,26.09
2022-07-26T10:15:40.326Z,26.27
2022-07-26T10:18:09.317Z,26.12
2022-07-26T10:20:50.733Z,26.03
2022-07-26T10:23:38.013Z,26.13
2022-07-26T10:26:07.590Z,26.20
2022-07-26T10:28:38.564Z,26.16
2022-07-26T10:31:32.373Z,26.33
2022-07-26T10:34:01.587Z,26.14
2022-07-26T10:36:40.754Z,26.11
2022-07-26T10:39:13.774Z,26.10
2022-07-26T10:41:44.214Z,25.94
2022-07-26T10:44:16.560Z,25.83
2022-07-26T10:47:19.761Z,25.78
2022-07-26T10:49:58.613Z,25.89
2022-07-26T10:52:29.597Z,25.96
2022-07-26T10:55:14.980Z,25.84
2022-07-26T10:57:44.188Z,25.90
2022-07-26T11:00:20.889Z,25.97
2022-07-26T11:02:50.554Z,25.70
2022-07-26T11:05:21.727Z,25.62
2022-07-26T11:08:09.215Z,25.56
2022-07-26T11:10:40.399Z,25.59
2022-07-26T11:13:16.468Z,25.68
2022-07-26T11:15:49.089Z,25.61
2022-07-26T11:18:19.401Z,25.62
2022-07-26T11:20:49.244Z,25.56
2022-07-26T11:23:34.990Z,25.74
2022-07-26T11:26:10.698Z,25.67
2022-07-26T11:28:57.499Z,25.82
2022-07-26T11:31:51.440Z,25.87
2022-07-26T11:34:29.262Z,25.76
2022-07-26T11:36:58.173Z,25.74
2022-07-26T11:39:29.667Z,25.89
2022-07-26T11:41:58.741Z,25.76
2022-07-26T11:44:27.804Z,25.33
2022-07-26T11:46:57.743Z,25.03
2022-07-26T11:49:51.923Z,25.10
2022-07-26T11:52:14.991Z,24.73
2022-07-26T11:54:54.326Z,24.51
2022-07-26T11:57:22.189Z,24.22
2022-07-26T11:59:51.226Z,23.85
2022-07-26T12:02:19.196Z,23.54
2022-07-26T12:04:47.111Z,23.48
2022-07-26T12:07:16.154Z,23.19
2022-07-26T12:09:48.381Z,23.17
2022-07-26T12:12:25.276Z,22.95
2022-07-26T12:15:04.498Z,23.09
2022-07-26T12:17:34.994Z,23.03
2022-07-26T12:20:12.168Z,23.11
2022-07-26T12:22:40.509Z,23.14
2022-07-26T12:25:09.312Z,22.92
2022-07-26T12:27:46.728Z,22.82
2022-07-26T12:30:16.347Z,22.53
2022-07-26T12:32:45.506Z,22.28
2022-07-26T12:35:15.748Z,22.12
2022-07-26T12:37:51.368Z,21.84
2022-07-26T12:40:22.190Z,21.63
2022-07-26T12:43:01.129Z,21.59
2022-07-26T12:45:31.948Z,21.58
2022-07-26T12:48:01.119Z,21.35
2022-07-26T12:50:33.127Z,21.31
2022-07-26T12:53:02.600Z,21.26
2022-07-26T12:55:30.480Z,20.97
2022-07-26T12:58:00.052Z,20.98
2022-07-26T13:00:29.767Z,20.93
2022-07-26T13:02:58.354Z,20.84
2022-07-26T13:05:26.264Z,20.86
2022-07-26T13:07:54.258Z,20.84
2022-07-26T13:10:33.204Z,20.66
2022-07-26T13:13:03.719Z,20.62
2022-07-26T13:15:37.159Z,20.67
2022-07-26T13:18:07.255Z,20.55
2022-07-26T13:20:35.280Z,20.53
2022-07-26T13:23:03.068Z,20.53
2022-07-26T13:25:38.246Z,20.46
2022-07-26T13:28:09.237Z,20.44
2022-07-26T13:30:38.437Z,20.42
2022-07-26T13:33:06.365Z,20.33
2022-07-26T13:35:34.118Z,20.38
2022-07-26T13:38:01.898Z,20.47
2022-07-26T13:40:31.724Z,20.53
2022-07-26T13:42:59.892Z,20.48
2022-07-26T13:45:30.019Z,20.50
2022-07-26T13:47:59.541Z,20.43
2022-07-26T13:50:27.772Z,20.21
2022-07-26T13:52:56.303Z,20.21
2022-07-26T13:55:25.689Z,20.19
2022-07-26T13:57:57.262Z,20.11
2022-07-26T14:00:27.862Z,19.97
2022-07-26T14:02:58.713Z,19.93
2022-07-26T14:05:28.104Z,19.89
2022-07-26T14:07:57.251Z,19.97
2022-07-26T14:10:25.443Z,19.97
2022-07-26T14:12:53.803Z,19.99
2022-07-26T14:15:23.289Z,19.93
2022-07-26T14:17:51.799Z,19.98
2022-07-26T14:20:21.959Z,20.01
2022-07-26T14:22:53.205Z,19.93
2022-07-26T14:25:22.520Z,19.94
2022-07-26T14:27:50.959Z,19.85
2022-07-26T14:30:18.730Z,19.78
2022-07-26T14:32:47.247Z,19.82
2022-07-26T14:35:16.486Z,19.72
2022-07-26T14:37:46.139Z,19.60
2022-07-26T14:40:17.157Z,19.66
2022-07-26T14:42:45.523Z,19.63
2022-07-26T14:45:13.841Z,19.52
2022-07-26T14:47:41.711Z,19.52
2022-07-26T14:50:11.068Z,19.44
2022-07-26T14:52:40.235Z,19.29
2022-07-26T14:55:15.349Z,19.18
2022-07-26T14:57:44.057Z,19.18
2022-07-26T15:00:13.780Z,19.19
2022-07-26T15:02:42.547Z,19.18
2022-07-26T15:05:10.945Z,19.12
2022-07-26T15:07:40.110Z,19.04
2022-07-26T15:10:12.189Z,18.99
2022-07-26T15:12:40.058Z,18.95
2022-07-26T15:15:09.513Z,18.85
2022-07-26T15:17:37.726Z,18.84
2022-07-26T15:20:06.892Z,18.81
2022-07-26T15:22:35.243Z,18.74
2022-07-26T15:25:04.214Z,18.80
2022-07-26T15:27:33.381Z,18.77
2022-07-26T15:30:05.295Z,18.69
2022-07-26T15:32:36.048Z,18.69
2022-07-26T15:35:04.073Z,18.64
2022-07-26T15:37:31.885Z,18.62
2022-07-26T15:39:59.721Z,18.61
2022-07-26T15:42:27.845Z,18.62
2022-07-26T15:44:57.157Z,18.75
2022-07-26T15:47:52.950Z,18.74
2022-07-26T15:50:14.341Z,18.77
2022-07-26T15:52:45.291Z,18.83
2022-07-26T15:55:16.408Z,18.88
2022-07-26T15:57:44.309Z,18.81
2022-07-26T16:00:19.519Z,18.87
2022-07-26T16:02:52.879Z,18.83
2022-07-26T16:05:22.068Z,18.81
2022-07-26T16:07:49.830Z,18.75
2022-07-26T16:10:18.590Z,18.82
2022-07-26T16:12:46.435Z,18.83
2022-07-26T16:15:16.184Z,18.63
2022-07-26T16:17:43.946Z,18.65
2022-07-26T16:20:14.195Z,18.78
2022-07-26T16:22:42.116Z,18.87
2022-07-26T16:25:13.031Z,18.85
2022-07-26T16:27:44.046Z,18.92
2022-07-26T16:30:18.286Z,18.78
2022-07-26T16:32:46.104Z,18.89
2022-07-26T16:35:14.413Z,18.98
2022-07-26T16:37:42.482Z,19.06
2022-07-26T16:40:11.485Z,19.02
2022-07-26T16:42:43.151Z,18.94
2022-07-26T16:45:11.969Z,18.89
2022-07-26T16:47:41.185Z,18.95
2022-07-26T16:50:09.575Z,18.90
2022-07-26T16:52:37.340Z,18.88
2022-07-26T16:55:11.777Z,18.95
2022-07-26T16:57:39.595Z,18.98
2022-07-26T17:00:09.987Z,18.97
2022-07-26T17:02:38.332Z,18.98
2022-07-26T17:05:08.977Z,18.99
2022-07-26T17:07:37.545Z,18.88
2022-07-26T17:10:15.372Z,18.99
2022-07-26T17:12:43.426Z,18.99
2022-07-26T17:15:12.262Z,19.02
2022-07-26T17:17:41.558Z,18.96
2022-07-26T17:20:13.612Z,19.09
2022-07-26T17:22:41.330Z,19.11
2022-07-26T17:25:09.978Z,19.11
2022-07-26T17:27:37.872Z,19.10
2022-07-26T17:30:07.241Z,19.05
2022-07-26T17:32:36.024Z,18.99
2022-07-26T17:35:03.745Z,18.86
2022-07-26T17:37:34.907Z,18.68
2022-07-26T17:40:03.459Z,18.56
2022-07-26T17:42:31.519Z,18.68
2022-07-26T17:44:59.240Z,18.70
2022-07-26T17:47:30.467Z,18.66
2022-07-26T17:50:14.205Z,18.56
2022-07-26T17:52:48.757Z,18.53
2022-07-26T17:55:19.546Z,18.49
2022-07-26T17:57:47.921Z,18.48
2022-07-26T18:00:16.984Z,18.52
2022-07-26T18:02:44.858Z,18.46
2022-07-26T18:05:12.718Z,18.43
2022-07-26T18:07:41.171Z,18.50
2022-07-26T18:10:11.624Z,18.57
2022-07-26T18:12:39.462Z,18.55
2022-07-26T18:15:08.586Z,18.41
2022-07-26T18:17:36.316Z,18.50
2022-07-26T18:20:04.994Z,18.50
2022-07-26T18:22:32.740Z,18.54
2022-07-26T18:25:00.514Z,18.46
2022-07-26T18:27:30.290Z,18.37
2022-07-26T18:29:58.155Z,18.25
2022-07-26T18:32:26.129Z,18.37
2022-07-26T18:34:54.135Z,18.20
2022-07-26T18:37:22.152Z,18.35
2022-07-26T18:39:52.821Z,18.34
2022-07-26T18:42:23.250Z,18.21
2022-07-26T18:44:52.509Z,18.14
2022-07-26T18:47:20.246Z,18.08
2022-07-26T18:49:47.967Z,18.10
2022-07-26T18:52:17.906Z,18.16
2022-07-26T18:54:58.630Z,18.22
2022-07-26T18:57:26.342Z,18.28
2022-07-26T18:59:55.443Z,18.27
2022-07-26T19:02:23.243Z,18.30
2022-07-26T19:04:51.054Z,18.29
2022-07-26T19:07:18.744Z,18.17
2022-07-26T19:09:46.480Z,18.05
2022-07-26T19:12:14.165Z,18.01
2022-07-26T19:14:41.861Z,18.04
2022-07-26T19:17:11.682Z,17.99
2022-07-26T19:19:39.742Z,17.90
2022-07-26T19:22:07.466Z,17.94
2022-07-26T19:24:35.347Z,17.78
2022-07-26T19:27:03.072Z,17.61
2022-07-26T19:29:30.858Z,17.60
2022-07-26T19:31:58.958Z,17.53
2022-07-26T19:34:28.277Z,17.50
2022-07-26T19:36:55.979Z,17.40
2022-07-26T19:39:23.881Z,17.34
2022-07-26T19:41:51.679Z,17.37
2022-07-26T19:44:19.630Z,17.33
2022-07-26T19:46:47.812Z,17.33
2022-07-26T19:49:16.995Z,17.31
2022-07-26T19:51:46.370Z,17.39
2022-07-26T19:54:14.108Z,17.27
2022-07-26T19:56:41.894Z,17.22
2022-07-26T19:59:09.994Z,17.22
2022-07-26T20:01:38.006Z,17.23
2022-07-26T20:04:06.358Z,17.20
2022-07-26T20:06:34.310Z,17.22
2022-07-26T20:09:03.468Z,17.16
2022-07-26T20:11:31.224Z,17.15
2022-07-26T20:13:58.971Z,17.21
2022-07-26T20:16:26.721Z,17.16
2022-07-26T20:18:56.109Z,17.15
2022-07-26T20:21:23.828Z,17.05
2022-07-26T20:23:51.538Z,17.00
2022-07-26T20:26:21.847Z,16.99
2022-07-26T20:28:50.633Z,16.89
2022-07-26T20:31:18.566Z,16.93
2022-07-26T20:33:46.467Z,16.90
2022-07-26T20:36:14.427Z,16.92
2022-07-26T20:38:42.157Z,16.97
2022-07-26T20:41:09.899Z,16.86
2022-07-26T20:43:39.534Z,16.82
2022-07-26T20:46:08.360Z,16.81
2022-07-26T20:48:36.201Z,16.89
2022-07-26T20:51:13.231Z,16.97
2022-07-26T20:53:41.586Z,17.00
2022-07-26T20:56:10.372Z,17.03
2022-07-26T20:58:39.553Z,16.99
2022-07-26T21:01:07.471Z,17.00
2022-07-26T21:03:35.292Z,17.03
2022-07-26T21:06:02.988Z,17.06
2022-07-26T21:08:30.734Z,16.99
2022-07-26T21:10:58.575Z,16.91
2022-07-26T21:13:26.317Z,17.06
2022-07-26T21:15:55.467Z,17.03
2022-07-26T21:18:23.583Z,17.08
2022-07-26T21:20:53.199Z,17.14
2022-07-26T21:23:20.909Z,17.17
2022-07-26T21:25:48.686Z,17.15
2022-07-26T21:28:25.702Z,17.06
2022-07-26T21:30:54.879Z,17.10
2022-07-26T21:33:22.593Z,17.03
2022-07-26T21:35:50.433Z,17.10
2022-07-26T21:38:18.171Z,17.14
2022-07-26T21:40:46.119Z,17.08
2022-07-26T21:43:14.056Z,17.03
2022-07-26T21:45:41.896Z,17.12
2022-07-26T21:48:10.974Z,17.08
2022-07-26T21:50:38.805Z,17.04
2022-07-26T21:53:06.529Z,17.03
2022-07-26T21:55:34.245Z,17.06
2022-07-26T21:58:02.090Z,16.91
2022-07-26T22:00:29.792Z,16.96
2022-07-26T22:02:57.460Z,16.97
2022-07-26T22:05:42.540Z,16.96
2022-07-26T22:08:11.613Z,16.96
2022-07-26T22:10:42.919Z,16.83
2022-07-26T22:13:12.779Z,16.87
2022-07-26T22:15:40.596Z,16.87
2022-07-26T22:18:09.863Z,16.85
2022-07-26T22:20:39.859Z,16.83
2022-07-26T22:23:09.211Z,16.84
2022-07-26T22:25:38.613Z,16.84
2022-07-26T22:28:07.551Z,16.87
2022-07-26T22:30:35.919Z,16.84
2022-07-26T22:33:05.376Z,16.83
2022-07-26T22:35:36.795Z,16.89
2022-07-26T22:38:08.448Z,16.89
2022-07-26T22:40:36.450Z,16.89
2022-07-26T22:43:04.363Z,16.93
2022-07-26T22:45:33.688Z,16.93
2022-07-26T22:48:03.390Z,16.93
2022-07-26T22:50:31.424Z,16.80
2022-07-26T22:53:00.890Z,16.95
2022-07-26T22:55:30.604Z,16.89
2022-07-26T22:57:58.420Z,16.92
2022-07-26T23:00:26.589Z,16.93
2022-07-26T23:02:54.500Z,16.94
2022-07-26T23:05:22.350Z,16.91
2022-07-26T23:08:03.364Z,16.91
2022-07-26T23:10:33.061Z,16.93
2022-07-26T23:13:00.873Z,16.89
2022-07-26T23:15:28.599Z,16.85
2022-07-26T23:17:56.299Z,16.85
2022-07-26T23:20:24.094Z,16.85
2022-07-26T23:22:51.798Z,16.81
2022-07-26T23:25:20.964Z,16.81
2022-07-26T23:27:50.192Z,16.83
2022-07-26T23:30:17.903Z,16.81
2022-07-26T23:32:45.590Z,16.76
2022-07-26T23:35:13.905Z,16.77
2022-07-26T23:37:41.612Z,16.78
2022-07-26T23:40:11.524Z,16.79
2022-07-26T23:42:39.227Z,16.77
2022-07-26T23:45:09.664Z,16.73
2022-07-26T23:47:37.390Z,16.76
2022-07-26T23:50:05.521Z,16.72
2022-07-26T23:52:33.206Z,16.74
2022-07-26T23:55:01.367Z,16.76
2022-07-26T23:57:29.105Z,16.78
2022-07-26T23:59:56.802Z,16.75
